Marble Falls, TX

6:47 PM CDT on August 31, 2015 (GMT -0500)
The Waterlands | | Change Station
CLOSE
Current Station
Personal Weather Station
Location: Horseshoe Bay, TX
Elevation: 837 ft
Nearby Weather Stations

Elev 837 ft 30.55 °N, 98.35 °W | Updated 2 seconds ago

Clear
Clear
95.4 °F
Feels Like 95 °F
N
0.0
Wind Variable Wind from WSW
Gusts 3.0 mph

Today
High -- | Low -- °F
--% Chance of Precip.
Yesterday
High -- | Low -- °F
Precip. -- in
7:09 AM 7:57 PM
Waning Gibbous, 93% visible
Pressure 29.95 in
Visibility 10.0 miles
Clouds Clear
Heat Index 95 °F
Dew Point 58 °F
Humidity 29%
Rainfall in
Snow Depth Not available.
UV 1 out of 12
Pollen 6.30 out of 12
Air Quality Not available.
Flu Activity Not available.
METAR KDZB 312335Z AUTO 15005KT 10SM CLR 34/15 A2995 RMK AO2 T03400145
Pressure 29.95 in
Visibility 10.0 miles
Clouds Clear
Heat Index 95 °F
Dew Point 58 °F
Humidity 29%
Rainfall in
Snow Depth Not available.
UV 1 out of 12
Pollen 6.30 out of 12
Air Quality Not available.
Flu Activity Not available.
METAR KDZB 312335Z AUTO 15005KT 10SM CLR 34/15 A2995 RMK AO2 T03400145
Nowcast | as of 6:25 PM CDT on August 31, 2015

Through 8 PM...isolated showers and thunderstorms will move to the northwest across the I-35 corridor. Spotty rainfall amounts up to 1/2 inch can be expected. Stronger storms could produce wind gusts of up to 30 mph.

×

10-Day Weather Forecast

×

Almanac

Astronomy

Aug. 31, 2015 Rise Set
Actual Time
Civil Twilight
Nautical Twilight
Astronomical Twilight
Moon
Length of Visible Light
Length of Day
Tomorrow will be .
, % of the Moon is Illuminated

Today's Extremes

State Highs State Lows

Community

WunderPhotos

Upload Photos

1,851,395 photos uploaded!

WunderBlogs® & News

Nearby

Air Quality

  Air Quality AQ Index Pollutant
Not available.

Snow Depth

Station Depth Elevation

Earthquake Activity

City Distance Mag. Time & Date
Minimum magnitude displayed is 2.5.

Coastal Water Temperatures

Place Temperature

Stations

Nearby Weather Stations

Station Location Temp. Windchill Dew Point Humidity Wind Precip. Elev Updated Type